sensor_id;sensor_type;location;lat;lon;timestamp;P1;durP1;ratioP1;P2;durP2;ratioP2
21721;SDS011;11023;48.274;7.794;2024-02-21T00:02:21;5.88;;;1.63;;
21721;SDS011;11023;48.274;7.794;2024-02-21T00:04:46;6.63;;;1.70;;
21721;SDS011;11023;48.274;7.794;2024-02-21T00:07:12;9.32;;;2.42;;
21721;SDS011;11023;48.274;7.794;2024-02-21T00:09:38;7.82;;;2.17;;
21721;SDS011;11023;48.274;7.794;2024-02-21T00:12:04;7.10;;;2.03;;
21721;SDS011;11023;48.274;7.794;2024-02-21T00:14:30;7.80;;;1.95;;
21721;SDS011;11023;48.274;7.794;2024-02-21T00:16:56;5.32;;;1.73;;
21721;SDS011;11023;48.274;7.794;2024-02-21T00:19:22;5.68;;;1.67;;
21721;SDS011;11023;48.274;7.794;2024-02-21T00:21:48;4.47;;;1.38;;
21721;SDS011;11023;48.274;7.794;2024-02-21T00:24:14;8.13;;;2.25;;
21721;SDS011;11023;48.274;7.794;2024-02-21T00:26:40;5.82;;;1.67;;
21721;SDS011;11023;48.274;7.794;2024-02-21T00:29:05;1.83;;;1.23;;
21721;SDS011;11023;48.274;7.794;2024-02-21T00:31:31;3.85;;;1.48;;
21721;SDS011;11023;48.274;7.794;2024-02-21T00:33:57;5.60;;;1.63;;
21721;SDS011;11023;48.274;7.794;2024-02-21T00:36:23;3.15;;;1.13;;
21721;SDS011;11023;48.274;7.794;2024-02-21T00:38:48;4.75;;;1.08;;
21721;SDS011;11023;48.274;7.794;2024-02-21T00:41:14;3.90;;;1.45;;
21721;SDS011;11023;48.274;7.794;2024-02-21T00:43:40;8.13;;;1.50;;
21721;SDS011;11023;48.274;7.794;2024-02-21T00:46:06;2.70;;;1.65;;
21721;SDS011;11023;48.274;7.794;2024-02-21T00:48:32;2.67;;;1.30;;
21721;SDS011;11023;48.274;7.794;2024-02-21T00:50:59;4.03;;;1.48;;
21721;SDS011;11023;48.274;7.794;2024-02-21T00:53:24;5.32;;;2.03;;
21721;SDS011;11023;48.274;7.794;2024-02-21T00:55:50;4.43;;;1.83;;
21721;SDS011;11023;48.274;7.794;2024-02-21T00:58:16;4.65;;;1.60;;
21721;SDS011;11023;48.274;7.794;2024-02-21T01:00:41;5.13;;;1.48;;
21721;SDS011;11023;48.274;7.794;2024-02-21T01:03:07;5.03;;;1.75;;
21721;SDS011;11023;48.274;7.794;2024-02-21T01:05:32;12.45;;;1.90;;
21721;SDS011;11023;48.274;7.794;2024-02-21T01:07:58;5.50;;;2.05;;
21721;SDS011;11023;48.274;7.794;2024-02-21T01:10:24;3.95;;;1.67;;
21721;SDS011;11023;48.274;7.794;2024-02-21T01:12:49;7.22;;;1.70;;
21721;SDS011;11023;48.274;7.794;2024-02-21T01:15:15;4.07;;;1.42;;
21721;SDS011;11023;48.274;7.794;2024-02-21T01:17:40;3.42;;;1.40;;
21721;SDS011;11023;48.274;7.794;2024-02-21T01:20:07;5.82;;;1.40;;
21721;SDS011;11023;48.274;7.794;2024-02-21T01:22:33;4.65;;;1.40;;
21721;SDS011;11023;48.274;7.794;2024-02-21T01:24:58;2.40;;;1.30;;
21721;SDS011;11023;48.274;7.794;2024-02-21T01:27:24;4.95;;;1.20;;
21721;SDS011;11023;48.274;7.794;2024-02-21T01:29:50;3.00;;;1.35;;
21721;SDS011;11023;48.274;7.794;2024-02-21T01:32:15;5.00;;;1.30;;
21721;SDS011;11023;48.274;7.794;2024-02-21T01:34:41;3.00;;;1.20;;
21721;SDS011;11023;48.274;7.794;2024-02-21T01:37:07;4.20;;;1.33;;
21721;SDS011;11023;48.274;7.794;2024-02-21T01:39:33;4.22;;;1.80;;
21721;SDS011;11023;48.274;7.794;2024-02-21T01:41:59;5.72;;;1.50;;
21721;SDS011;11023;48.274;7.794;2024-02-21T01:44:25;3.10;;;1.50;;
21721;SDS011;11023;48.274;7.794;2024-02-21T01:46:51;4.22;;;1.63;;
21721;SDS011;11023;48.274;7.794;2024-02-21T01:49:20;3.80;;;1.35;;
21721;SDS011;11023;48.274;7.794;2024-02-21T01:51:47;3.25;;;1.50;;
21721;SDS011;11023;48.274;7.794;2024-02-21T01:54:13;4.88;;;1.58;;
21721;SDS011;11023;48.274;7.794;2024-02-21T01:56:41;4.97;;;1.27;;
21721;SDS011;11023;48.274;7.794;2024-02-21T01:59:07;5.30;;;1.38;;
21721;SDS011;11023;48.274;7.794;2024-02-21T02:01:33;3.42;;;1.15;;
21721;SDS011;11023;48.274;7.794;2024-02-21T02:03:59;7.28;;;1.50;;
21721;SDS011;11023;48.274;7.794;2024-02-21T02:06:25;4.57;;;1.10;;
21721;SDS011;11023;48.274;7.794;2024-02-21T02:08:51;5.78;;;1.52;;
21721;SDS011;11023;48.274;7.794;2024-02-21T02:11:17;4.45;;;0.93;;
21721;SDS011;11023;48.274;7.794;2024-02-21T02:13:43;5.03;;;1.08;;
21721;SDS011;11023;48.274;7.794;2024-02-21T02:16:09;3.45;;;1.50;;
21721;SDS011;11023;48.274;7.794;2024-02-21T02:18:37;4.90;;;1.33;;
21721;SDS011;11023;48.274;7.794;2024-02-21T02:21:04;5.13;;;1.27;;
21721;SDS011;11023;48.274;7.794;2024-02-21T02:23:33;2.80;;;1.42;;
21721;SDS011;11023;48.274;7.794;2024-02-21T02:25:59;7.07;;;1.15;;
21721;SDS011;11023;48.274;7.794;2024-02-21T02:28:26;5.43;;;0.90;;
21721;SDS011;11023;48.274;7.794;2024-02-21T02:30:52;6.70;;;2.05;;
21721;SDS011;11023;48.274;7.794;2024-02-21T02:33:18;10.95;;;1.73;;
21721;SDS011;11023;48.274;7.794;2024-02-21T02:35:45;7.70;;;1.73;;
21721;SDS011;11023;48.274;7.794;2024-02-21T02:38:11;3.75;;;1.83;;
21721;SDS011;11023;48.274;7.794;2024-02-21T02:40:38;2.22;;;1.38;;
21721;SDS011;11023;48.274;7.794;2024-02-21T02:43:04;4.80;;;1.98;;
21721;SDS011;11023;48.274;7.794;2024-02-21T02:45:31;7.13;;;2.40;;
21721;SDS011;11023;48.274;7.794;2024-02-21T02:47:57;7.55;;;2.03;;
21721;SDS011;11023;48.274;7.794;2024-02-21T02:50:23;7.50;;;2.55;;
21721;SDS011;11023;48.274;7.794;2024-02-21T02:52:50;10.60;;;2.42;;
21721;SDS011;11023;48.274;7.794;2024-02-21T02:55:16;8.77;;;1.85;;
21721;SDS011;11023;48.274;7.794;2024-02-21T02:57:41;7.93;;;1.83;;
21721;SDS011;11023;48.274;7.794;2024-02-21T03:00:07;5.38;;;1.20;;
21721;SDS011;11023;48.274;7.794;2024-02-21T03:02:35;5.40;;;2.05;;
21721;SDS011;11023;48.274;7.794;2024-02-21T03:05:03;6.13;;;2.03;;
21721;SDS011;11023;48.274;7.794;2024-02-21T03:07:40;3.78;;;1.70;;
21721;SDS011;11023;48.274;7.794;2024-02-21T03:10:08;8.63;;;1.63;;
21721;SDS011;11023;48.274;7.794;2024-02-21T03:12:34;6.55;;;1.92;;
21721;SDS011;11023;48.274;7.794;2024-02-21T03:15:00;5.47;;;1.60;;
21721;SDS011;11023;48.274;7.794;2024-02-21T03:17:27;3.15;;;1.60;;
21721;SDS011;11023;48.274;7.794;2024-02-21T03:19:53;6.50;;;2.00;;
21721;SDS011;11023;48.274;7.794;2024-02-21T03:22:20;4.60;;;1.58;;
21721;SDS011;11023;48.274;7.794;2024-02-21T03:24:48;8.43;;;1.77;;
21721;SDS011;11023;48.274;7.794;2024-02-21T03:27:13;5.68;;;2.03;;
21721;SDS011;11023;48.274;7.794;2024-02-21T03:29:39;8.30;;;2.13;;
21721;SDS011;11023;48.274;7.794;2024-02-21T03:32:05;6.68;;;2.20;;
21721;SDS011;11023;48.274;7.794;2024-02-21T03:34:32;2.28;;;1.33;;
21721;SDS011;11023;48.274;7.794;2024-02-21T03:36:57;7.68;;;1.52;;
21721;SDS011;11023;48.274;7.794;2024-02-21T03:39:24;3.35;;;1.30;;
21721;SDS011;11023;48.274;7.794;2024-02-21T03:41:51;8.85;;;1.48;;
21721;SDS011;11023;48.274;7.794;2024-02-21T03:44:16;3.60;;;1.17;;
21721;SDS011;11023;48.274;7.794;2024-02-21T03:46:42;3.35;;;1.30;;
21721;SDS011;11023;48.274;7.794;2024-02-21T03:49:08;3.30;;;1.08;;
21721;SDS011;11023;48.274;7.794;2024-02-21T03:51:34;8.85;;;1.50;;
21721;SDS011;11023;48.274;7.794;2024-02-21T03:54:00;4.78;;;1.40;;
21721;SDS011;11023;48.274;7.794;2024-02-21T03:56:26;2.92;;;1.02;;
21721;SDS011;11023;48.274;7.794;2024-02-21T03:58:51;6.68;;;1.75;;
21721;SDS011;11023;48.274;7.794;2024-02-21T04:01:17;3.35;;;1.15;;
21721;SDS011;11023;48.274;7.794;2024-02-21T04:03:43;9.63;;;1.92;;
21721;SDS011;11023;48.274;7.794;2024-02-21T04:06:09;6.20;;;1.33;;
21721;SDS011;11023;48.274;7.794;2024-02-21T04:08:35;9.30;;;1.67;;
21721;SDS011;11023;48.274;7.794;2024-02-21T04:11:01;5.47;;;1.50;;
21721;SDS011;11023;48.274;7.794;2024-02-21T04:13:28;9.30;;;1.42;;
21721;SDS011;11023;48.274;7.794;2024-02-21T04:15:54;4.43;;;1.33;;
21721;SDS011;11023;48.274;7.794;2024-02-21T04:18:20;5.30;;;1.75;;
21721;SDS011;11023;48.274;7.794;2024-02-21T04:20:46;5.97;;;1.70;;
21721;SDS011;11023;48.274;7.794;2024-02-21T04:23:12;3.85;;;1.58;;
21721;SDS011;11023;48.274;7.794;2024-02-21T04:25:38;4.95;;;1.70;;
21721;SDS011;11023;48.274;7.794;2024-02-21T04:28:04;4.30;;;1.48;;
21721;SDS011;11023;48.274;7.794;2024-02-21T04:30:30;8.13;;;1.75;;
21721;SDS011;11023;48.274;7.794;2024-02-21T04:32:55;3.70;;;1.35;;
21721;SDS011;11023;48.274;7.794;2024-02-21T04:35:21;4.72;;;1.42;;
21721;SDS011;11023;48.274;7.794;2024-02-21T04:37:49;6.65;;;1.42;;
21721;SDS011;11023;48.274;7.794;2024-02-21T04:40:14;4.10;;;1.20;;
21721;SDS011;11023;48.274;7.794;2024-02-21T04:42:41;4.25;;;1.05;;
21721;SDS011;11023;48.274;7.794;2024-02-21T04:45:08;6.25;;;1.48;;
21721;SDS011;11023;48.274;7.794;2024-02-21T04:47:34;5.70;;;1.30;;
21721;SDS011;11023;48.274;7.794;2024-02-21T04:50:00;9.02;;;1.83;;
21721;SDS011;11023;48.274;7.794;2024-02-21T04:52:26;1.95;;;1.13;;
21721;SDS011;11023;48.274;7.794;2024-02-21T04:54:52;5.82;;;1.65;;
21721;SDS011;11023;48.274;7.794;2024-02-21T04:57:18;4.32;;;1.40;;
21721;SDS011;11023;48.274;7.794;2024-02-21T04:59:43;3.13;;;0.93;;
21721;SDS011;11023;48.274;7.794;2024-02-21T05:02:10;5.53;;;1.77;;
21721;SDS011;11023;48.274;7.794;2024-02-21T05:04:36;4.20;;;1.38;;
21721;SDS011;11023;48.274;7.794;2024-02-21T05:07:03;3.72;;;1.25;;
21721;SDS011;11023;48.274;7.794;2024-02-21T05:09:30;6.32;;;1.95;;
21721;SDS011;11023;48.274;7.794;2024-02-21T05:11:58;9.90;;;1.70;;
21721;SDS011;11023;48.274;7.794;2024-02-21T05:14:26;3.63;;;1.77;;
21721;SDS011;11023;48.274;7.794;2024-02-21T05:16:54;3.63;;;1.77;;
21721;SDS011;11023;48.274;7.794;2024-02-21T05:19:21;7.32;;;1.42;;
21721;SDS011;11023;48.274;7.794;2024-02-21T05:21:46;4.50;;;1.98;;
21721;SDS011;11023;48.274;7.794;2024-02-21T05:24:12;3.35;;;1.88;;
21721;SDS011;11023;48.274;7.794;2024-02-21T05:26:38;5.15;;;1.98;;
21721;SDS011;11023;48.274;7.794;2024-02-21T05:29:04;11.70;;;1.92;;
21721;SDS011;11023;48.274;7.794;2024-02-21T05:31:43;7.18;;;1.67;;
21721;SDS011;11023;48.274;7.794;2024-02-21T05:34:21;8.93;;;1.55;;
21721;SDS011;11023;48.274;7.794;2024-02-21T05:36:47;3.33;;;1.83;;
21721;SDS011;11023;48.274;7.794;2024-02-21T05:39:14;9.13;;;1.75;;
21721;SDS011;11023;48.274;7.794;2024-02-21T05:41:41;5.10;;;1.88;;
21721;SDS011;11023;48.274;7.794;2024-02-21T05:44:07;7.22;;;1.83;;
21721;SDS011;11023;48.274;7.794;2024-02-21T05:46:33;5.25;;;1.80;;
21721;SDS011;11023;48.274;7.794;2024-02-21T05:49:00;3.28;;;1.65;;
21721;SDS011;11023;48.274;7.794;2024-02-21T05:51:26;8.10;;;2.00;;
21721;SDS011;11023;48.274;7.794;2024-02-21T05:53:51;6.20;;;2.10;;
21721;SDS011;11023;48.274;7.794;2024-02-21T05:56:17;7.63;;;2.58;;
21721;SDS011;11023;48.274;7.794;2024-02-21T05:58:43;12.77;;;2.67;;
21721;SDS011;11023;48.274;7.794;2024-02-21T06:01:09;8.52;;;3.10;;
21721;SDS011;11023;48.274;7.794;2024-02-21T06:03:35;5.63;;;3.00;;
21721;SDS011;11023;48.274;7.794;2024-02-21T06:06:01;5.07;;;2.58;;
21721;SDS011;11023;48.274;7.794;2024-02-21T06:08:30;3.95;;;2.10;;
21721;SDS011;11023;48.274;7.794;2024-02-21T06:10:55;3.95;;;2.25;;
21721;SDS011;11023;48.274;7.794;2024-02-21T06:13:21;4.72;;;1.92;;
21721;SDS011;11023;48.274;7.794;2024-02-21T06:15:49;3.40;;;1.60;;
21721;SDS011;11023;48.274;7.794;2024-02-21T06:18:18;2.22;;;1.60;;
21721;SDS011;11023;48.274;7.794;2024-02-21T06:20:46;3.30;;;1.30;;
21721;SDS011;11023;48.274;7.794;2024-02-21T06:23:15;4.25;;;1.60;;
21721;SDS011;11023;48.274;7.794;2024-02-21T06:25:43;7.53;;;2.72;;
21721;SDS011;11023;48.274;7.794;2024-02-21T06:28:09;7.35;;;2.58;;
21721;SDS011;11023;48.274;7.794;2024-02-21T06:30:37;9.10;;;4.00;;
21721;SDS011;11023;48.274;7.794;2024-02-21T06:33:02;12.55;;;3.85;;
21721;SDS011;11023;48.274;7.794;2024-02-21T06:35:28;8.30;;;3.58;;
21721;SDS011;11023;48.274;7.794;2024-02-21T06:37:54;11.48;;;3.63;;
21721;SDS011;11023;48.274;7.794;2024-02-21T06:40:21;9.65;;;2.95;;
21721;SDS011;11023;48.274;7.794;2024-02-21T06:42:47;11.27;;;3.50;;
21721;SDS011;11023;48.274;7.794;2024-02-21T06:45:13;7.43;;;2.78;;
21721;SDS011;11023;48.274;7.794;2024-02-21T06:47:39;8.70;;;2.10;;
21721;SDS011;11023;48.274;7.794;2024-02-21T06:50:05;10.05;;;2.65;;
21721;SDS011;11023;48.274;7.794;2024-02-21T06:52:32;4.75;;;2.00;;
21721;SDS011;11023;48.274;7.794;2024-02-21T06:54:57;5.38;;;2.13;;
21721;SDS011;11023;48.274;7.794;2024-02-21T06:57:23;7.93;;;1.83;;
21721;SDS011;11023;48.274;7.794;2024-02-21T06:59:49;6.07;;;1.52;;
21721;SDS011;11023;48.274;7.794;2024-02-21T07:02:15;7.25;;;1.98;;
21721;SDS011;11023;48.274;7.794;2024-02-21T07:04:41;11.98;;;2.33;;
21721;SDS011;11023;48.274;7.794;2024-02-21T07:07:06;6.10;;;2.97;;
21721;SDS011;11023;48.274;7.794;2024-02-21T07:09:33;4.28;;;1.90;;
21721;SDS011;11023;48.274;7.794;2024-02-21T07:11:59;5.35;;;1.77;;
21721;SDS011;11023;48.274;7.794;2024-02-21T07:14:25;5.40;;;2.03;;
21721;SDS011;11023;48.274;7.794;2024-02-21T07:16:51;7.50;;;2.72;;
21721;SDS011;11023;48.274;7.794;2024-02-21T07:19:17;8.10;;;2.85;;
21721;SDS011;11023;48.274;7.794;2024-02-21T07:21:42;9.32;;;2.72;;
21721;SDS011;11023;48.274;7.794;2024-02-21T07:24:08;2.58;;;1.98;;
21721;SDS011;11023;48.274;7.794;2024-02-21T07:26:34;5.32;;;2.33;;
21721;SDS011;11023;48.274;7.794;2024-02-21T07:29:00;3.35;;;1.77;;
21721;SDS011;11023;48.274;7.794;2024-02-21T07:31:26;5.75;;;2.40;;
21721;SDS011;11023;48.274;7.794;2024-02-21T07:33:52;10.88;;;2.38;;
21721;SDS011;11023;48.274;7.794;2024-02-21T07:36:25;8.48;;;2.10;;
21721;SDS011;11023;48.274;7.794;2024-02-21T07:38:56;10.63;;;2.20;;
21721;SDS011;11023;48.274;7.794;2024-02-21T07:41:21;2.70;;;1.40;;
21721;SDS011;11023;48.274;7.794;2024-02-21T07:43:47;5.68;;;1.65;;
21721;SDS011;11023;48.274;7.794;2024-02-21T07:46:13;7.75;;;2.53;;
21721;SDS011;11023;48.274;7.794;2024-02-21T07:48:39;4.30;;;1.70;;
21721;SDS011;11023;48.274;7.794;2024-02-21T07:51:05;4.88;;;2.05;;
21721;SDS011;11023;48.274;7.794;2024-02-21T07:53:31;2.80;;;1.30;;
21721;SDS011;11023;48.274;7.794;2024-02-21T07:55:56;9.40;;;1.98;;
21721;SDS011;11023;48.274;7.794;2024-02-21T07:58:22;3.80;;;1.80;;
21721;SDS011;11023;48.274;7.794;2024-02-21T08:00:48;10.45;;;1.60;;
21721;SDS011;11023;48.274;7.794;2024-02-21T08:03:14;3.45;;;1.42;;
21721;SDS011;11023;48.274;7.794;2024-02-21T08:05:42;4.47;;;1.80;;
21721;SDS011;11023;48.274;7.794;2024-02-21T08:08:08;3.95;;;1.52;;
21721;SDS011;11023;48.274;7.794;2024-02-21T08:10:34;7.80;;;2.05;;
21721;SDS011;11023;48.274;7.794;2024-02-21T08:13:00;5.75;;;1.58;;
21721;SDS011;11023;48.274;7.794;2024-02-21T08:15:25;5.40;;;1.67;;
21721;SDS011;11023;48.274;7.794;2024-02-21T08:17:54;5.50;;;2.03;;
21721;SDS011;11023;48.274;7.794;2024-02-21T08:20:24;6.53;;;1.85;;
21721;SDS011;11023;48.274;7.794;2024-02-21T08:22:50;3.03;;;1.58;;
21721;SDS011;11023;48.274;7.794;2024-02-21T08:25:18;4.03;;;1.83;;
21721;SDS011;11023;48.274;7.794;2024-02-21T08:27:44;9.57;;;2.08;;
21721;SDS011;11023;48.274;7.794;2024-02-21T08:30:10;6.57;;;1.98;;
21721;SDS011;11023;48.274;7.794;2024-02-21T08:32:36;5.25;;;2.22;;
21721;SDS011;11023;48.274;7.794;2024-02-21T08:35:02;10.07;;;2.22;;
21721;SDS011;11023;48.274;7.794;2024-02-21T08:37:28;6.80;;;1.95;;
21721;SDS011;11023;48.274;7.794;2024-02-21T08:39:54;9.73;;;2.10;;
21721;SDS011;11023;48.274;7.794;2024-02-21T08:42:20;5.13;;;2.38;;
21721;SDS011;11023;48.274;7.794;2024-02-21T08:44:45;5.15;;;1.70;;
21721;SDS011;11023;48.274;7.794;2024-02-21T08:47:11;5.18;;;2.33;;
21721;SDS011;11023;48.274;7.794;2024-02-21T08:49:37;8.32;;;1.73;;
21721;SDS011;11023;48.274;7.794;2024-02-21T08:52:03;8.13;;;1.95;;
21721;SDS011;11023;48.274;7.794;2024-02-21T08:54:29;4.35;;;1.90;;
21721;SDS011;11023;48.274;7.794;2024-02-21T08:56:54;4.05;;;1.67;;
21721;SDS011;11023;48.274;7.794;2024-02-21T08:59:21;7.65;;;2.10;;
21721;SDS011;11023;48.274;7.794;2024-02-21T09:01:47;7.95;;;2.10;;
21721;SDS011;11023;48.274;7.794;2024-02-21T09:04:13;3.50;;;1.67;;
21721;SDS011;11023;48.274;7.794;2024-02-21T09:06:38;5.07;;;1.90;;
21721;SDS011;11023;48.274;7.794;2024-02-21T09:09:07;4.90;;;1.70;;
21721;SDS011;11023;48.274;7.794;2024-02-21T09:11:34;5.78;;;1.98;;
21721;SDS011;11023;48.274;7.794;2024-02-21T09:14:00;4.47;;;2.28;;
21721;SDS011;11023;48.274;7.794;2024-02-21T09:16:28;8.77;;;2.60;;
21721;SDS011;11023;48.274;7.794;2024-02-21T09:18:57;3.90;;;1.98;;
21721;SDS011;11023;48.274;7.794;2024-02-21T09:21:23;7.63;;;2.22;;
21721;SDS011;11023;48.274;7.794;2024-02-21T09:23:48;8.38;;;2.03;;
21721;SDS011;11023;48.274;7.794;2024-02-21T09:26:14;8.50;;;1.80;;
21721;SDS011;11023;48.274;7.794;2024-02-21T09:28:42;5.97;;;1.40;;
21721;SDS011;11023;48.274;7.794;2024-02-21T09:31:08;7.85;;;1.85;;
21721;SDS011;11023;48.274;7.794;2024-02-21T09:33:34;3.95;;;1.38;;
21721;SDS011;11023;48.274;7.794;2024-02-21T09:35:59;6.35;;;2.35;;
21721;SDS011;11023;48.274;7.794;2024-02-21T09:38:26;6.45;;;1.88;;
21721;SDS011;11023;48.274;7.794;2024-02-21T09:40:58;8.68;;;2.30;;
21721;SDS011;11023;48.274;7.794;2024-02-21T09:43:28;4.15;;;1.90;;
21721;SDS011;11023;48.274;7.794;2024-02-21T09:45:54;2.92;;;1.13;;
21721;SDS011;11023;48.274;7.794;2024-02-21T09:51:37;1.95;;;1.20;;
21721;SDS011;11023;48.274;7.794;2024-02-21T09:54:05;5.45;;;1.10;;
21721;SDS011;11023;48.274;7.794;2024-02-21T09:56:33;5.10;;;1.45;;
21721;SDS011;11023;48.274;7.794;2024-02-21T09:58:58;4.28;;;1.00;;
21721;SDS011;11023;48.274;7.794;2024-02-21T10:01:28;2.80;;;1.23;;
21721;SDS011;11023;48.274;7.794;2024-02-21T10:03:54;3.65;;;1.20;;
21721;SDS011;11023;48.274;7.794;2024-02-21T10:06:19;5.90;;;1.23;;
21721;SDS011;11023;48.274;7.794;2024-02-21T10:08:51;2.50;;;1.15;;
21721;SDS011;11023;48.274;7.794;2024-02-21T10:11:24;2.38;;;1.13;;
21721;SDS011;11023;48.274;7.794;2024-02-21T10:14:07;4.53;;;1.53;;
21721;SDS011;11023;48.274;7.794;2024-02-21T10:16:33;3.03;;;1.15;;
21721;SDS011;11023;48.274;7.794;2024-02-21T10:18:59;2.85;;;0.90;;
21721;SDS011;11023;48.274;7.794;2024-02-21T10:21:25;8.48;;;1.50;;
21721;SDS011;11023;48.274;7.794;2024-02-21T10:23:51;2.78;;;1.20;;
21721;SDS011;11023;48.274;7.794;2024-02-21T10:26:18;3.20;;;1.05;;
21721;SDS011;11023;48.274;7.794;2024-02-21T10:28:45;4.32;;;0.82;;
21721;SDS011;11023;48.274;7.794;2024-02-21T10:31:20;5.35;;;1.40;;
21721;SDS011;11023;48.274;7.794;2024-02-21T10:34:08;5.00;;;1.13;;
21721;SDS011;11023;48.274;7.794;2024-02-21T10:36:34;2.60;;;1.10;;
21721;SDS011;11023;48.274;7.794;2024-02-21T10:39:00;3.38;;;1.00;;
21721;SDS011;11023;48.274;7.794;2024-02-21T10:41:25;3.65;;;1.08;;
21721;SDS011;11023;48.274;7.794;2024-02-21T10:43:53;3.95;;;1.27;;
21721;SDS011;11023;48.274;7.794;2024-02-21T10:46:20;3.42;;;1.15;;
21721;SDS011;11023;48.274;7.794;2024-02-21T10:48:47;1.77;;;0.73;;
21721;SDS011;11023;48.274;7.794;2024-02-21T10:51:19;4.72;;;1.25;;
21721;SDS011;11023;48.274;7.794;2024-02-21T10:56:22;3.15;;;0.95;;
21721;SDS011;11023;48.274;7.794;2024-02-21T10:58:53;10.05;;;1.95;;
21721;SDS011;11023;48.274;7.794;2024-02-21T11:01:21;2.08;;;1.10;;
21721;SDS011;11023;48.274;7.794;2024-02-21T11:03:48;7.40;;;1.35;;
21721;SDS011;11023;48.274;7.794;2024-02-21T11:06:19;4.85;;;1.88;;
21721;SDS011;11023;48.274;7.794;2024-02-21T11:08:46;4.22;;;1.30;;
21721;SDS011;11023;48.274;7.794;2024-02-21T11:11:14;4.93;;;1.95;;
21721;SDS011;11023;48.274;7.794;2024-02-21T11:13:45;4.57;;;1.05;;
21721;SDS011;11023;48.274;7.794;2024-02-21T11:16:11;4.28;;;1.20;;
21721;SDS011;11023;48.274;7.794;2024-02-21T11:18:46;1.95;;;0.90;;
21721;SDS011;11023;48.274;7.794;2024-02-21T11:21:12;3.28;;;0.95;;
21721;SDS011;11023;48.274;7.794;2024-02-21T11:23:37;4.32;;;0.95;;
21721;SDS011;11023;48.274;7.794;2024-02-21T11:26:09;6.07;;;1.20;;
21721;SDS011;11023;48.274;7.794;2024-02-21T11:28:44;4.45;;;1.52;;
21721;SDS011;11023;48.274;7.794;2024-02-21T11:31:13;2.53;;;1.42;;
21721;SDS011;11023;48.274;7.794;2024-02-21T11:33:39;4.32;;;1.27;;
21721;SDS011;11023;48.274;7.794;2024-02-21T11:36:11;5.65;;;1.20;;
21721;SDS011;11023;48.274;7.794;2024-02-21T11:38:52;3.95;;;1.10;;
21721;SDS011;11023;48.274;7.794;2024-02-21T11:41:20;2.55;;;1.60;;
21721;SDS011;11023;48.274;7.794;2024-02-21T11:43:48;6.05;;;1.38;;
21721;SDS011;11023;48.274;7.794;2024-02-21T11:46:15;3.70;;;1.33;;
21721;SDS011;11023;48.274;7.794;2024-02-21T11:48:41;4.15;;;1.50;;
21721;SDS011;11023;48.274;7.794;2024-02-21T11:51:20;2.58;;;1.13;;
21721;SDS011;11023;48.274;7.794;2024-02-21T11:53:50;4.90;;;1.58;;
21721;SDS011;11023;48.274;7.794;2024-02-21T11:56:18;6.90;;;1.48;;
21721;SDS011;11023;48.274;7.794;2024-02-21T11:58:45;3.17;;;1.40;;
21721;SDS011;11023;48.274;7.794;2024-02-21T12:01:12;2.90;;;1.33;;
21721;SDS011;11023;48.274;7.794;2024-02-21T12:03:39;4.05;;;1.13;;
21721;SDS011;11023;48.274;7.794;2024-02-21T12:06:06;3.00;;;1.00;;
21721;SDS011;11023;48.274;7.794;2024-02-21T12:08:42;4.93;;;1.30;;
21721;SDS011;11023;48.274;7.794;2024-02-21T12:11:21;3.28;;;1.55;;
21721;SDS011;11023;48.274;7.794;2024-02-21T12:13:57;6.90;;;1.13;;
21721;SDS011;11023;48.274;7.794;2024-02-21T12:16:28;3.30;;;1.20;;
21721;SDS011;11023;48.274;7.794;2024-02-21T12:18:55;2.17;;;1.15;;
21721;SDS011;11023;48.274;7.794;2024-02-21T12:21:25;3.80;;;1.23;;
21721;SDS011;11023;48.274;7.794;2024-02-21T12:24:13;3.33;;;1.23;;
21721;SDS011;11023;48.274;7.794;2024-02-21T12:26:40;2.75;;;0.80;;
21721;SDS011;11023;48.274;7.794;2024-02-21T12:29:06;6.45;;;1.25;;
21721;SDS011;11023;48.274;7.794;2024-02-21T12:31:34;3.30;;;1.08;;
21721;SDS011;11023;48.274;7.794;2024-02-21T12:34:01;3.92;;;1.27;;
21721;SDS011;11023;48.274;7.794;2024-02-21T12:36:26;4.50;;;1.35;;
21721;SDS011;11023;48.274;7.794;2024-02-21T12:38:52;2.63;;;1.00;;
21721;SDS011;11023;48.274;7.794;2024-02-21T12:41:18;3.55;;;1.40;;
21721;SDS011;11023;48.274;7.794;2024-02-21T12:43:43;3.20;;;1.40;;
21721;SDS011;11023;48.274;7.794;2024-02-21T12:46:09;1.92;;;0.90;;
21721;SDS011;11023;48.274;7.794;2024-02-21T12:48:35;3.13;;;1.30;;
21721;SDS011;11023;48.274;7.794;2024-02-21T12:51:00;4.32;;;1.20;;
21721;SDS011;11023;48.274;7.794;2024-02-21T12:53:26;1.33;;;0.80;;
21721;SDS011;11023;48.274;7.794;2024-02-21T12:55:52;6.30;;;1.42;;
21721;SDS011;11023;48.274;7.794;2024-02-21T12:58:18;9.05;;;3.78;;
21721;SDS011;11023;48.274;7.794;2024-02-21T13:00:43;2.92;;;1.00;;
21721;SDS011;11023;48.274;7.794;2024-02-21T13:03:09;2.00;;;1.08;;
21721;SDS011;11023;48.274;7.794;2024-02-21T13:05:38;1.58;;;0.60;;
21721;SDS011;11023;48.274;7.794;2024-02-21T13:08:04;0.77;;;0.40;;
21721;SDS011;11023;48.274;7.794;2024-02-21T13:10:36;4.05;;;0.73;;
21721;SDS011;11023;48.274;7.794;2024-02-21T13:13:03;1.10;;;0.60;;
21721;SDS011;11023;48.274;7.794;2024-02-21T13:15:28;0.70;;;0.40;;
21721;SDS011;11023;48.274;7.794;2024-02-21T13:17:55;0.90;;;0.40;;
21721;SDS011;11023;48.274;7.794;2024-02-21T13:20:25;3.88;;;0.77;;
21721;SDS011;11023;48.274;7.794;2024-02-21T13:22:51;0.55;;;0.45;;
21721;SDS011;11023;48.274;7.794;2024-02-21T13:25:17;1.83;;;0.68;;
21721;SDS011;11023;48.274;7.794;2024-02-21T13:27:45;1.23;;;0.60;;
21721;SDS011;11023;48.274;7.794;2024-02-21T13:30:11;2.50;;;0.80;;
21721;SDS011;11023;48.274;7.794;2024-02-21T13:32:37;2.63;;;0.60;;
21721;SDS011;11023;48.274;7.794;2024-02-21T13:35:04;1.60;;;0.65;;
21721;SDS011;11023;48.274;7.794;2024-02-21T13:37:30;1.13;;;0.55;;
21721;SDS011;11023;48.274;7.794;2024-02-21T13:39:56;3.47;;;1.00;;
21721;SDS011;11023;48.274;7.794;2024-02-21T13:42:22;1.38;;;0.70;;
21721;SDS011;11023;48.274;7.794;2024-02-21T13:44:48;1.52;;;0.68;;
21721;SDS011;11023;48.274;7.794;2024-02-21T13:47:14;3.28;;;0.80;;
21721;SDS011;11023;48.274;7.794;2024-02-21T13:49:40;3.15;;;0.75;;
21721;SDS011;11023;48.274;7.794;2024-02-21T13:52:06;4.78;;;1.10;;
21721;SDS011;11023;48.274;7.794;2024-02-21T13:54:32;5.80;;;0.93;;
21721;SDS011;11023;48.274;7.794;2024-02-21T13:56:58;3.95;;;1.15;;
21721;SDS011;11023;48.274;7.794;2024-02-21T13:59:23;3.53;;;1.00;;
21721;SDS011;11023;48.274;7.794;2024-02-21T14:01:51;0.65;;;0.60;;
21721;SDS011;11023;48.274;7.794;2024-02-21T14:04:16;3.67;;;1.10;;
21721;SDS011;11023;48.274;7.794;2024-02-21T14:06:42;2.85;;;0.90;;
21721;SDS011;11023;48.274;7.794;2024-02-21T14:09:09;1.40;;;0.60;;
21721;SDS011;11023;48.274;7.794;2024-02-21T14:11:34;2.10;;;0.70;;
21721;SDS011;11023;48.274;7.794;2024-02-21T14:14:00;2.65;;;0.90;;
21721;SDS011;11023;48.274;7.794;2024-02-21T14:16:26;4.38;;;0.80;;
21721;SDS011;11023;48.274;7.794;2024-02-21T14:18:52;1.42;;;0.80;;
21721;SDS011;11023;48.274;7.794;2024-02-21T14:21:19;3.25;;;1.15;;
21721;SDS011;11023;48.274;7.794;2024-02-21T14:23:46;1.90;;;0.70;;
21721;SDS011;11023;48.274;7.794;2024-02-21T14:26:12;1.35;;;1.00;;
21721;SDS011;11023;48.274;7.794;2024-02-21T14:28:39;1.65;;;0.82;;
21721;SDS011;11023;48.274;7.794;2024-02-21T14:31:05;2.65;;;0.82;;
21721;SDS011;11023;48.274;7.794;2024-02-21T14:33:34;1.25;;;0.75;;
21721;SDS011;11023;48.274;7.794;2024-02-21T14:36:00;2.05;;;0.80;;
21721;SDS011;11023;48.274;7.794;2024-02-21T14:38:26;1.08;;;0.75;;
21721;SDS011;11023;48.274;7.794;2024-02-21T14:40:52;1.33;;;0.70;;
21721;SDS011;11023;48.274;7.794;2024-02-21T14:43:18;5.10;;;0.90;;
21721;SDS011;11023;48.274;7.794;2024-02-21T14:45:46;1.10;;;0.70;;
21721;SDS011;11023;48.274;7.794;2024-02-21T14:48:15;1.90;;;0.60;;
21721;SDS011;11023;48.274;7.794;2024-02-21T14:50:41;1.65;;;0.88;;
21721;SDS011;11023;48.274;7.794;2024-02-21T14:53:09;3.80;;;0.73;;